Time;durP1;ratioP1;P1;durP2;ratioP2;P2;SDS_P1;SDS_P2;PMS_P1;PMS_P2;Temp;Humidity;BMP_temperature;BMP_pressure;BME280_temperature;BME280_humidity;BME280_pressure;Samples;Min_cycle;Max_cycle;Signal;HPM_P1;HPM_P2
2023/01/20 00:01:37;;;;;;;1.15;0.90;;;;;;;1.89;87.58;98470.25;4439954;32;35063;-74
2023/01/20 00:04:05;;;;;;;2.80;2.60;;;;;;;2.08;85.84;98460.97;4439997;32;34582;-82
2023/01/20 00:06:34;;;;;;;0.82;0.82;;;;;;;2.26;84.90;98462.88;4439104;32;32841;-83
2023/01/20 00:09:03;;;;;;;2.15;2.05;;;;;;;2.42;84.81;98454.44;4438791;32;34281;-83
2023/01/20 00:11:32;;;;;;;2.85;1.60;;;;;;;1.73;88.17;98452.94;4438680;32;35052;-83
2023/01/20 00:14:01;;;;;;;0.95;0.95;;;;;;;1.90;88.00;98457.41;4439936;32;34597;-75
2023/01/20 00:16:33;;;;;;;0.90;0.90;;;;;;;2.02;86.12;98456.66;4439919;32;33499;-81
2023/01/20 00:19:01;;;;;;;0.98;0.98;;;;;;;1.82;88.77;98460.75;4439867;32;33961;-82
2023/01/20 00:21:29;;;;;;;0.80;0.80;;;;;;;1.87;88.23;98453.94;4438659;32;35718;-79
2023/01/20 00:23:57;;;;;;;2.33;1.15;;;;;;;1.67;88.16;98446.91;4439721;32;34366;-76
2023/01/20 00:26:26;;;;;;;17.65;5.25;;;;;;;1.99;86.34;98455.78;4439183;32;33195;-82
2023/01/20 00:28:54;;;;;;;0.88;0.88;;;;;;;1.91;86.74;98463.41;4439756;32;33874;-82
2023/01/20 00:31:25;;;;;;;0.82;0.82;;;;;;;1.92;86.93;98467.69;4439754;32;35090;-81
2023/01/20 00:33:55;;;;;;;0.80;0.80;;;;;;;1.83;86.84;98457.34;4439573;32;34465;-81
2023/01/20 00:36:24;;;;;;;0.80;0.80;;;;;;;2.01;85.60;98460.09;4438674;32;33701;-68
2023/01/20 00:38:52;;;;;;;0.80;0.80;;;;;;;2.00;86.14;98475.47;4438681;32;33771;-80
2023/01/20 00:41:21;;;;;;;1.23;1.23;;;;;;;1.97;85.99;98483.16;4439588;32;35921;-80
2023/01/20 00:43:49;;;;;;;0.98;0.98;;;;;;;1.92;85.89;98495.91;4439731;32;34437;-79
2023/01/20 00:46:18;;;;;;;1.60;1.50;;;;;;;1.75;87.45;98510.28;4439769;32;34223;-74
2023/01/20 00:48:46;;;;;;;0.68;0.68;;;;;;;1.89;87.45;98521.59;4439686;32;34714;-81
2023/01/20 00:51:14;;;;;;;0.85;0.85;;;;;;;1.97;86.02;98514.81;4439527;32;35224;-82
2023/01/20 00:53:42;;;;;;;1.10;1.10;;;;;;;2.18;85.74;98523.56;4451248;32;34566;-81
2023/01/20 00:56:10;;;;;;;0.90;0.90;;;;;;;1.91;86.19;98504.50;4439722;32;33463;-80
2023/01/20 00:58:41;;;;;;;1.95;1.85;;;;;;;1.91;86.97;98496.78;4439612;32;33947;-69
2023/01/20 01:01:10;;;;;;;1.62;1.55;;;;;;;1.76;87.19;98499.19;4439644;32;35494;-69
2023/01/20 01:03:38;;;;;;;1.45;1.35;;;;;;;2.14;85.15;98496.16;4439596;32;34392;-71
2023/01/20 01:06:09;;;;;;;3.17;2.97;;;;;;;2.11;84.93;98488.41;4439595;32;33511;-81
2023/01/20 01:08:37;;;;;;;0.73;0.73;;;;;;;1.42;87.79;98474.00;4438520;32;34058;-81
2023/01/20 01:11:05;;;;;;;0.65;0.65;;;;;;;1.44;87.56;98469.75;4439554;32;34995;-81
2023/01/20 01:13:34;;;;;;;0.80;0.80;;;;;;;1.77;85.16;98477.81;4439430;32;35090;-81
2023/01/20 01:16:04;;;;;;;0.62;0.62;;;;;;;1.92;84.86;98470.25;4439590;32;33477;-70
2023/01/20 01:18:32;;;;;;;0.90;0.90;;;;;;;2.09;83.79;98466.12;4439566;32;34734;-80
2023/01/20 01:21:10;;;;;;;2.90;2.80;;;;;;;1.92;83.37;98470.25;4439570;32;34998;-69
2023/01/20 01:23:38;;;;;;;1.05;1.05;;;;;;;1.43;86.56;98460.34;4439458;32;35339;-75
2023/01/20 01:26:07;;;;;;;0.80;0.80;;;;;;;1.68;85.93;98461.47;4439454;32;34453;-81
2023/01/20 01:28:35;;;;;;;1.60;1.35;;;;;;;1.74;85.64;98462.37;4438502;32;33431;-81
2023/01/20 01:31:06;;;;;;;0.80;0.80;;;;;;;1.97;84.30;98450.62;4439453;32;34248;-80
2023/01/20 01:33:35;;;;;;;0.77;0.77;;;;;;;1.93;84.82;98441.19;4438989;32;35275;-81
2023/01/20 01:36:05;;;;;;;1.33;1.23;;;;;;;1.93;84.62;98441.19;4439005;32;34325;-81
2023/01/20 01:38:33;;;;;;;0.70;0.70;;;;;;;1.50;86.55;98433.91;4438515;32;34017;-79
2023/01/20 01:41:01;;;;;;;1.50;1.37;;;;;;;1.57;86.21;98441.66;4439253;32;35073;-79
2023/01/20 01:43:32;;;;;;;1.00;1.00;;;;;;;1.28;87.15;98435.38;4439154;32;34337;-68
2023/01/20 01:46:01;;;;;;;1.37;1.27;;;;;;;1.66;87.13;98436.63;4439249;32;34298;-73
2023/01/20 01:48:29;;;;;;;1.98;1.27;;;;;;;1.38;86.68;98431.22;4439204;32;33800;-70
2023/01/20 01:50:59;;;;;;;1.17;1.17;;;;;;;1.65;86.64;98429.78;4439184;32;35973;-80
2023/01/20 01:53:29;;;;;;;1.05;1.05;;;;;;;1.59;86.56;98429.72;4439138;32;34427;-81
2023/01/20 01:56:00;;;;;;;1.08;1.08;;;;;;;1.52;87.43;98431.37;4425515;32;33453;-81
2023/01/20 01:58:35;;;;;;;0.85;0.85;;;;;;;1.28;87.76;98419.97;4425465;32;34018;-68
2023/01/20 02:01:03;;;;;;;2.92;1.55;;;;;;;1.22;88.75;98417.34;4425306;32;35875;-80
2023/01/20 02:03:39;;;;;;;0.95;0.95;;;;;;;1.32;88.26;98411.50;4425378;32;34430;-78
2023/01/20 02:06:08;;;;;;;0.75;0.75;;;;;;;1.36;87.29;98411.50;4425438;32;33592;-82
2023/01/20 02:08:37;;;;;;;1.98;1.87;;;;;;;1.46;87.53;98413.34;4439060;32;33857;-82
2023/01/20 02:11:05;;;;;;;0.80;0.80;;;;;;;1.21;88.58;98420.75;4439030;32;34925;-82
2023/01/20 02:13:33;;;;;;;3.65;3.35;;;;;;;0.93;90.12;98415.28;4438810;32;35191;-81
2023/01/20 02:16:10;;;;;;;1.08;1.08;;;;;;;1.23;87.41;98402.81;4425169;32;33685;-72
2023/01/20 02:19:00;;;;;;;1.75;1.65;;;;;;;0.99;88.98;98405.94;4439035;32;34825;-79
2023/01/20 02:21:49;;;;;;;1.25;1.12;;;;;;;0.88;89.95;98411.81;4438928;32;35165;-81
2023/01/20 02:24:37;;;;;;;1.05;1.05;;;;;;;1.20;89.05;98416.47;4438869;32;35218;-70
2023/01/20 02:27:28;;;;;;;1.33;1.27;;;;;;;1.00;89.62;98410.25;4438824;32;33477;-82
2023/01/20 02:30:16;;;;;;;1.25;1.25;;;;;;;1.30;88.25;98418.28;4425138;32;33885;-80
2023/01/20 02:32:53;;;;;;;0.90;0.90;;;;;;;1.40;88.46;98423.53;4438660;32;35028;-83
2023/01/20 02:35:28;;;;;;;3.45;3.17;;;;;;;1.01;89.48;98427.34;4438831;32;34626;-79
2023/01/20 02:38:13;;;;;;;0.70;0.70;;;;;;;1.46;87.73;98426.16;4438827;32;33432;-80
2023/01/20 02:40:52;;;;;;;0.70;0.70;;;;;;;1.27;88.40;98415.72;4438660;32;34131;-69
2023/01/20 02:43:28;;;;;;;3.03;1.45;;;;;;;1.16;89.29;98413.84;4438587;32;35002;-68
2023/01/20 02:46:10;;;;;;;1.33;1.33;;;;;;;1.30;88.34;98412.31;4438649;32;34632;-80
2023/01/20 02:48:57;;;;;;;0.80;0.80;;;;;;;1.45;87.36;98409.06;4425485;32;33374;-81
2023/01/20 02:51:30;;;;;;;1.12;1.12;;;;;;;1.38;88.41;98412.38;4440479;32;34629;-80
2023/01/20 02:54:01;;;;;;;0.85;0.85;;;;;;;1.50;88.23;98409.94;4440389;32;35301;-79
2023/01/20 02:56:30;;;;;;;1.65;1.55;;;;;;;1.02;89.71;98406.84;4426740;32;35097;-72
2023/01/20 02:59:02;;;;;;;1.67;1.58;;;;;;;1.39;89.35;98420.09;4440356;32;33352;-80
2023/01/20 03:01:41;;;;;;;1.85;1.75;;;;;;;1.02;89.65;98421.38;4426727;32;34732;-76
2023/01/20 03:04:10;;;;;;;5.53;5.00;;;;;;;1.37;89.04;98419.22;4440498;32;36013;-81
2023/01/20 03:06:43;;;;;;;0.70;0.70;;;;;;;1.55;88.43;98423.69;4440607;32;35386;-81
2023/01/20 03:09:15;;;;;;;0.70;0.70;;;;;;;1.64;87.56;98418.66;4426515;32;33720;-80
2023/01/20 03:11:49;;;;;;;0.70;0.70;;;;;;;1.31;89.35;98414.88;4426942;32;33897;-80
2023/01/20 03:14:18;;;;;;;1.00;1.00;;;;;;;1.46;88.69;98426.16;4426456;32;35160;-75
2023/01/20 03:16:47;;;;;;;0.80;0.80;;;;;;;1.24;89.15;98427.62;4426852;32;35150;-81
2023/01/20 03:19:16;;;;;;;1.15;1.15;;;;;;;1.44;88.85;98430.41;4426655;32;33478;-81
2023/01/20 03:21:47;;;;;;;2.03;1.92;;;;;;;1.42;88.31;98434.69;4426824;32;34792;-81
2023/01/20 03:24:15;;;;;;;0.93;0.93;;;;;;;1.80;86.88;98440.22;4440245;32;35902;-81
2023/01/20 03:26:43;;;;;;;1.08;1.08;;;;;;;1.47;87.92;98440.72;4440257;32;34369;-82
2023/01/20 03:29:14;;;;;;;0.70;0.70;;;;;;;1.27;89.35;98433.66;4440121;32;33617;-81
2023/01/20 03:31:50;;;;;;;1.12;1.12;;;;;;;1.69;87.55;98445.25;4440169;32;34027;-78
2023/01/20 03:34:22;;;;;;;1.10;1.10;;;;;;;1.47;87.77;98445.84;4440009;32;35067;-70
2023/01/20 03:36:51;;;;;;;0.80;0.80;;;;;;;1.57;88.57;98450.25;4426260;32;34324;-71
2023/01/20 03:39:19;;;;;;;1.08;1.08;;;;;;;1.93;86.78;98446.31;4426624;32;33580;-80
2023/01/20 03:42:09;;;;;;;0.70;0.70;;;;;;;2.11;86.37;98437.06;4426296;32;33365;-81
2023/01/20 03:45:08;;;;;;;1.27;1.25;;;;;;;2.12;85.94;98441.31;4440029;32;34787;-81
2023/01/20 03:47:50;;;;;;;0.80;0.80;;;;;;;1.84;86.54;98443.66;4426235;32;34377;-80
2023/01/20 03:50:30;;;;;;;0.93;0.93;;;;;;;1.82;88.89;98435.94;4440079;32;33499;-69
2023/01/20 03:53:32;;;;;;;0.90;0.90;;;;;;;1.83;87.53;98444.50;4440078;32;33409;-81
2023/01/20 03:56:30;;;;;;;2.85;1.65;;;;;;;1.69;87.55;98442.69;4439958;32;35029;-79
2023/01/20 03:58:59;;;;;;;0.82;0.82;;;;;;;1.96;87.04;98440.34;4439900;32;34591;-82
2023/01/20 04:01:38;;;;;;;1.58;1.33;;;;;;;1.92;86.97;98444.59;4439274;32;33603;-81
2023/01/20 04:04:10;;;;;;;0.95;0.95;;;;;;;1.64;88.56;98434.06;4426324;32;33905;-81
2023/01/20 04:06:40;;;;;;;1.58;1.48;;;;;;;1.95;86.84;98439.47;4426181;32;34987;-82
2023/01/20 04:09:12;;;;;;;1.15;1.12;;;;;;;2.09;86.90;98439.59;4426382;32;33780;-81
2023/01/20 04:11:40;;;;;;;1.35;1.25;;;;;;;2.12;85.49;98446.47;4439937;32;33331;-83
2023/01/20 04:14:09;;;;;;;1.33;1.27;;;;;;;1.87;85.75;98435.97;4439829;32;34604;-84
2023/01/20 04:16:37;;;;;;;1.25;1.25;;;;;;;2.01;85.91;98436.97;4433617;32;35028;-83
2023/01/20 04:19:05;;;;;;;1.20;0.90;;;;;;;1.99;86.30;98437.81;4424208;32;34153;-85
2023/01/20 04:21:36;;;;;;;0.70;0.70;;;;;;;1.78;86.46;98433.31;4428980;32;33427;-83
2023/01/20 04:24:30;;;;;;;0.80;0.80;;;;;;;2.32;84.58;98439.78;4425677;32;33090;-84
2023/01/20 04:26:58;;;;;;;0.82;0.82;;;;;;;2.18;84.64;98444.81;4433929;32;34920;-84
2023/01/20 04:29:26;;;;;;;3.67;1.98;;;;;;;1.92;85.89;98449.72;4439527;32;34433;-84
2023/01/20 04:32:01;;;;;;;0.70;0.70;;;;;;;2.26;84.74;98453.44;4439398;32;33658;-83
2023/01/20 04:34:30;;;;;;;0.80;0.80;;;;;;;2.46;83.63;98452.75;4439613;32;33976;-83
2023/01/20 04:36:58;;;;;;;3.08;2.87;;;;;;;2.26;84.87;98447.47;4425472;32;35141;-84
2023/01/20 04:39:26;;;;;;;1.52;1.48;;;;;;;2.32;84.35;98449.22;4439558;32;34549;-82
2023/01/20 04:41:54;;;;;;;0.70;0.70;;;;;;;2.78;83.56;98449.53;4439317;32;33519;-85
2023/01/20 04:44:22;;;;;;;2.45;1.23;;;;;;;2.91;82.82;98460.75;4439441;32;33948;-84
2023/01/20 04:46:55;;;;;;;0.60;0.60;;;;;;;2.74;82.74;98463.22;4439232;32;35243;-83
2023/01/20 04:49:23;;;;;;;1.30;1.27;;;;;;;2.88;83.35;98459.03;4439497;32;35171;-69
2023/01/20 04:51:51;;;;;;;1.25;1.23;;;;;;;2.96;82.96;98448.78;4439115;32;34440;-70
2023/01/20 04:54:20;;;;;;;0.60;0.60;;;;;;;2.48;84.13;98435.62;4439100;32;33942;-69
2023/01/20 04:56:48;;;;;;;1.25;1.25;;;;;;;2.81;83.80;98424.69;4439419;32;35040;-74
2023/01/20 04:59:16;;;;;;;1.45;1.35;;;;;;;2.94;83.88;98419.62;4439482;32;34578;-78
2023/01/20 05:01:44;;;;;;;0.88;0.88;;;;;;;2.49;83.45;98410.78;4439066;32;33511;-80
2023/01/20 05:04:12;;;;;;;1.25;1.17;;;;;;;2.47;83.41;98406.50;4439212;32;33987;-75
2023/01/20 05:06:42;;;;;;;0.65;0.65;;;;;;;2.28;83.86;98402.09;4439011;32;35791;-78
2023/01/20 05:09:14;;;;;;;1.10;1.10;;;;;;;2.31;83.43;98396.09;4439650;32;35227;-79
2023/01/20 05:11:43;;;;;;;0.88;0.88;;;;;;;1.77;86.29;98388.84;4425111;32;34335;-81
2023/01/20 05:14:11;;;;;;;3.67;1.50;;;;;;;1.77;85.88;98398.25;4438976;32;33973;-71
2023/01/20 05:16:39;;;;;;;1.35;1.23;;;;;;;1.95;85.56;98403.53;4439048;32;36066;-80
2023/01/20 05:19:11;;;;;;;0.60;0.60;;;;;;;2.26;83.96;98398.66;4439268;32;33967;-79
2023/01/20 05:21:39;;;;;;;1.52;1.42;;;;;;;1.85;85.21;98397.47;4438962;32;34327;-80
2023/01/20 05:24:07;;;;;;;0.70;0.70;;;;;;;2.34;83.17;98398.69;4425298;32;34457;-77
2023/01/20 05:26:36;;;;;;;0.75;0.75;;;;;;;2.43;82.40;98406.47;4438984;32;34907;-81
2023/01/20 05:29:04;;;;;;;0.90;0.90;;;;;;;2.45;82.28;98404.75;4439047;32;35084;-69
2023/01/20 05:31:32;;;;;;;0.77;0.77;;;;;;;1.83;84.92;98406.84;4438926;32;34283;-69
2023/01/20 05:34:00;;;;;;;0.70;0.70;;;;;;;2.03;84.76;98401.91;4452019;32;34053;-71
2023/01/20 05:36:28;;;;;;;0.85;0.85;;;;;;;2.22;84.78;98402.03;4452937;32;35960;-74
2023/01/20 05:38:56;;;;;;;2.10;2.00;;;;;;;2.01;85.53;98407.84;4439147;32;34543;-70
2023/01/20 05:41:24;;;;;;;1.02;1.02;;;;;;;2.30;83.85;98410.66;4439047;32;33706;-74
2023/01/20 05:43:52;;;;;;;0.60;0.60;;;;;;;2.40;83.83;98412.47;4439076;32;34698;-83
2023/01/20 05:46:20;;;;;;;1.55;1.45;;;;;;;2.57;82.77;98419.41;4438998;32;35813;-69
2023/01/20 05:48:49;;;;;;;5.68;2.08;;;;;;;2.67;81.36;98420.34;4438975;32;35164;-83
2023/01/20 05:51:17;;;;;;;0.60;0.60;;;;;;;2.64;82.34;98424.59;4439098;32;33394;-71
2023/01/20 05:53:45;;;;;;;0.70;0.70;;;;;;;2.57;82.50;98427.12;4454250;32;33994;-77
2023/01/20 05:56:14;;;;;;;1.73;1.62;;;;;;;2.90;81.48;98421.31;4454358;32;35994;-70
2023/01/20 05:58:43;;;;;;;0.60;0.60;;;;;;;2.63;82.64;98420.31;4439102;32;34422;-84
2023/01/20 06:01:12;;;;;;;2.47;2.30;;;;;;;2.80;82.50;98424.69;4438911;32;34168;-69
2023/01/20 06:03:41;;;;;;;2.25;1.98;;;;;;;2.45;83.77;98425.31;4424990;32;33909;-77
2023/01/20 06:06:13;;;;;;;1.45;1.35;;;;;;;2.93;81.46;98425.59;4438726;32;35054;-83
2023/01/20 06:08:41;;;;;;;2.55;2.28;;;;;;;2.77;82.38;98419.53;4438558;32;34498;-84
2023/01/20 06:11:10;;;;;;;2.05;1.75;;;;;;;2.78;81.82;98411.81;4439076;32;33588;-85
2023/01/20 06:13:38;;;;;;;0.60;0.60;;;;;;;2.72;81.80;98414.38;4438912;32;33925;-82
2023/01/20 06:16:07;;;;;;;2.92;2.05;;;;;;;2.58;83.99;98413.44;4438962;32;35817;-83
2023/01/20 06:18:35;;;;;;;1.52;1.42;;;;;;;2.40;84.30;98415.03;4436934;32;35164;-76
2023/01/20 06:21:03;;;;;;;1.42;1.35;;;;;;;2.45;83.85;98415.03;4424963;32;34220;-68
2023/01/20 06:23:31;;;;;;;1.95;1.85;;;;;;;2.58;83.51;98416.00;4437742;32;33992;-79
2023/01/20 06:26:01;;;;;;;3.40;1.67;;;;;;;2.63;82.90;98414.31;4438689;32;35036;-70
2023/01/20 06:28:29;;;;;;;0.60;0.60;;;;;;;2.79;83.27;98420.41;4424452;32;34433;-67
2023/01/20 06:31:02;;;;;;;0.90;0.90;;;;;;;2.64;84.54;98419.44;4438866;32;34283;-84
2023/01/20 06:33:31;;;;;;;1.00;1.00;;;;;;;2.74;83.62;98422.09;4424657;32;33953;-73
2023/01/20 06:36:00;;;;;;;1.23;1.23;;;;;;;2.83;83.44;98420.41;4424733;32;35180;-69
2023/01/20 06:38:31;;;;;;;1.30;1.30;;;;;;;2.42;84.66;98413.31;4425772;32;35053;-69
2023/01/20 06:41:02;;;;;;;1.12;1.02;;;;;;;2.23;86.19;98414.03;4423282;32;33459;-82
2023/01/20 06:43:32;;;;;;;1.42;0.80;;;;;;;2.35;84.79;98409.00;4423151;32;33886;-68
2023/01/20 06:46:03;;;;;;;2.70;2.05;;;;;;;2.73;84.44;98416.06;4423174;32;34944;-81
2023/01/20 06:48:31;;;;;;;0.60;0.60;;;;;;;2.83;82.98;98423.00;4422885;32;34458;-81
2023/01/20 06:51:04;;;;;;;0.82;0.82;;;;;;;2.43;86.00;98427.88;4423116;32;33504;-79
2023/01/20 06:53:33;;;;;;;0.82;0.82;;;;;;;2.49;85.53;98432.22;4422861;32;33942;-69
2023/01/20 06:56:01;;;;;;;0.70;0.70;;;;;;;2.54;83.95;98424.53;4422842;32;35966;-69
2023/01/20 06:58:31;;;;;;;0.82;0.82;;;;;;;2.42;84.34;98431.31;4422992;32;34550;-69
2023/01/20 07:01:14;;;;;;;1.40;1.35;;;;;;;2.82;83.98;98431.56;4409257;32;34253;-70
2023/01/20 07:03:42;;;;;;;1.42;1.33;;;;;;;2.65;83.82;98433.19;4422997;32;34162;-68
2023/01/20 07:06:15;;;;;;;0.70;0.70;;;;;;;2.30;86.22;98430.37;4422848;32;35062;-76
2023/01/20 07:08:44;;;;;;;0.65;0.65;;;;;;;2.41;85.98;98434.72;4422698;32;34571;-70
2023/01/20 07:11:12;;;;;;;1.02;1.02;;;;;;;2.79;84.36;98444.41;4422755;32;33551;-69
2023/01/20 07:13:40;;;;;;;0.60;0.60;;;;;;;2.92;83.16;98447.03;4422732;32;33940;-68
2023/01/20 07:16:09;;;;;;;0.93;0.90;;;;;;;2.59;85.29;98449.41;4422564;32;34764;-69
2023/01/20 07:18:45;;;;;;;0.95;0.95;;;;;;;2.90;84.41;98447.03;4409112;32;34458;-68
2023/01/20 07:21:13;;;;;;;0.75;0.75;;;;;;;3.25;82.86;98454.06;4422700;32;34465;-69
2023/01/20 07:23:42;;;;;;;1.67;1.58;;;;;;;2.88;85.05;98450.44;4428243;32;33996;-69
2023/01/20 07:26:13;;;;;;;1.05;1.05;;;;;;;2.95;83.53;98458.19;4437913;32;35180;-76
2023/01/20 07:28:41;;;;;;;0.80;0.80;;;;;;;3.04;83.75;98454.81;4425930;32;35192;-68
2023/01/20 07:31:12;;;;;;;1.70;1.60;;;;;;;2.87;84.28;98459.00;4422305;32;33458;-68
2023/01/20 07:33:41;;;;;;;1.30;1.27;;;;;;;2.94;84.50;98466.75;4433023;32;33044;-73
2023/01/20 07:36:10;;;;;;;1.45;1.40;;;;;;;2.95;84.50;98462.50;4425978;32;35018;-68
2023/01/20 07:38:38;;;;;;;1.02;1.02;;;;;;;2.64;85.51;98464.84;4439732;32;34977;-67
2023/01/20 07:41:14;;;;;;;0.98;0.98;;;;;;;3.07;84.45;98452.28;4439873;32;33455;-71
2023/01/20 07:43:44;;;;;;;0.80;0.80;;;;;;;2.95;83.79;98458.19;4426743;32;33909;-74
2023/01/20 07:46:13;;;;;;;0.60;0.60;;;;;;;3.01;83.39;98457.38;4439882;32;35097;-77
2023/01/20 07:48:41;;;;;;;0.90;0.90;;;;;;;2.80;84.97;98453.81;4439658;32;34436;-76
2023/01/20 07:51:11;;;;;;;0.95;0.93;;;;;;;2.95;84.30;98457.34;4439941;32;33537;-71
2023/01/20 07:53:45;;;;;;;0.60;0.60;;;;;;;2.84;85.42;98463.28;4440043;32;33888;-68
2023/01/20 07:56:17;;;;;;;1.58;1.42;;;;;;;3.02;84.51;98469.37;4439573;32;35229;-70
2023/01/20 07:58:46;;;;;;;1.05;1.02;;;;;;;2.93;83.39;98470.19;4439896;32;34813;-78
2023/01/20 08:01:36;;;;;;;0.60;0.60;;;;;;;2.94;83.37;98471.03;4439831;32;34259;-72
2023/01/20 08:04:05;;;;;;;0.90;0.90;;;;;;;2.87;84.54;98474.44;4439684;32;33799;-79
2023/01/20 08:06:33;;;;;;;1.30;1.30;;;;;;;2.53;86.18;98475.06;4439532;32;35199;-69
2023/01/20 08:09:02;;;;;;;0.70;0.70;;;;;;;2.34;87.46;98484.34;4439649;32;34555;-70
2023/01/20 08:11:33;;;;;;;1.35;1.35;;;;;;;2.53;86.20;98481.94;4439817;32;33638;-69
2023/01/20 08:14:01;;;;;;;1.00;1.00;;;;;;;3.00;83.84;98494.22;4439603;32;33860;-71
2023/01/20 08:16:29;;;;;;;1.77;1.67;;;;;;;2.75;85.18;98490.63;4439553;32;35175;-78
2023/01/20 08:18:58;;;;;;;5.35;1.67;;;;;;;2.80;85.16;98494.09;4425566;32;33943;-77
2023/01/20 08:21:30;;;;;;;1.87;1.62;;;;;;;3.08;83.82;98499.41;4439600;32;33493;-81
2023/01/20 08:24:01;;;;;;;1.33;1.33;;;;;;;2.86;84.41;98499.28;4439494;32;34737;-67
2023/01/20 08:26:29;;;;;;;0.93;0.93;;;;;;;2.78;85.41;98496.66;4439829;32;35297;-67
2023/01/20 08:29:03;;;;;;;1.00;1.00;;;;;;;3.00;83.82;98501.94;4439415;32;34503;-81
2023/01/20 08:31:32;;;;;;;4.40;2.47;;;;;;;3.26;83.01;98498.66;4439662;32;34323;-68
2023/01/20 08:34:01;;;;;;;0.98;0.98;;;;;;;2.69;85.94;98494.03;4439119;32;34755;-77
2023/01/20 08:36:32;;;;;;;4.37;1.80;;;;;;;2.92;85.16;98494.19;4439644;32;35026;-68
2023/01/20 08:39:02;;;;;;;1.48;1.40;;;;;;;3.07;84.69;98498.56;4439530;32;35375;-80
2023/01/20 08:41:34;;;;;;;0.60;0.60;;;;;;;2.72;85.99;98498.31;4439635;32;33585;-72
2023/01/20 08:44:05;;;;;;;0.60;0.60;;;;;;;2.87;86.50;98500.16;4439458;32;34830;-67
2023/01/20 08:46:33;;;;;;;1.00;1.00;;;;;;;2.74;85.74;98507.78;4425122;32;34668;-68
2023/01/20 08:49:07;;;;;;;0.90;0.90;;;;;;;2.61;86.54;98501.69;4439437;32;34459;-68
2023/01/20 08:51:37;;;;;;;0.93;0.93;;;;;;;2.89;84.81;98503.59;4439593;32;33014;-77
2023/01/20 08:54:06;;;;;;;0.93;0.93;;;;;;;3.06;85.30;98501.97;4425753;32;33972;-77
2023/01/20 08:56:35;;;;;;;1.67;1.58;;;;;;;2.53;87.63;98505.91;4439150;32;35128;-70
2023/01/20 08:59:03;;;;;;;0.55;0.55;;;;;;;2.93;86.27;98510.47;4439084;32;34526;-68
2023/01/20 09:01:34;;;;;;;1.42;1.33;;;;;;;3.03;85.84;98510.53;4439363;32;33525;-67
2023/01/20 09:04:04;;;;;;;0.80;0.80;;;;;;;3.11;85.74;98505.44;4438931;32;33932;-71
2023/01/20 09:06:43;;;;;;;0.65;0.65;;;;;;;3.07;85.18;98513.13;4439206;32;35094;-72
2023/01/20 09:09:13;;;;;;;0.85;0.85;;;;;;;2.75;87.95;98514.63;4439392;32;34596;-68
2023/01/20 09:11:43;;;;;;;3.08;1.70;;;;;;;2.53;87.63;98515.34;4439255;32;32722;-69
2023/01/20 09:14:14;;;;;;;0.93;0.93;;;;;;;3.08;85.22;98510.56;4426184;32;34463;-77
2023/01/20 09:16:43;;;;;;;0.70;0.70;;;;;;;3.17;85.07;98505.47;4438947;32;35936;-67
2023/01/20 09:19:11;;;;;;;0.90;0.90;;;;;;;3.03;85.80;98502.81;4439145;32;34484;-71
2023/01/20 09:21:39;;;;;;;1.10;1.00;;;;;;;2.96;85.68;98495.06;4439324;32;33336;-67
2023/01/20 09:24:08;;;;;;;1.02;1.02;;;;;;;3.27;84.12;98501.25;4438811;32;33939;-67
2023/01/20 09:26:39;;;;;;;0.70;0.70;;;;;;;2.85;85.34;98501.00;4439126;32;35887;-67
2023/01/20 09:29:13;;;;;;;0.90;0.90;;;;;;;2.56;88.27;98485.38;4438988;32;34349;-68
2023/01/20 09:31:49;;;;;;;0.50;0.50;;;;;;;2.70;85.68;98482.91;4439265;32;34238;-66
2023/01/20 09:34:23;;;;;;;1.58;1.48;;;;;;;2.90;84.39;98484.75;4438908;32;34772;-67
2023/01/20 09:36:52;;;;;;;0.60;0.60;;;;;;;3.02;85.50;98469.37;4439335;32;35956;-67
2023/01/20 09:46:00;;;;;;;1.75;1.65;;;;;;;3.31;86.56;98466.94;4427393;32;33992;-70
2023/01/20 09:55:09;;;;;;;0.70;0.70;;;;;;;3.83;82.10;98463.69;4427418;32;33618;-68
2023/01/20 09:57:39;;;;;;;5.22;4.65;;;;;;;3.38;84.19;98457.53;4437994;32;33920;-66
2023/01/20 10:00:13;;;;;;;4.22;3.92;;;;;;;3.42;84.22;98459.25;4438730;32;34115;-76
2023/01/20 10:02:44;;;;;;;0.75;0.73;;;;;;;3.53;83.24;98452.44;4425358;32;34348;-72
2023/01/20 10:05:17;;;;;;;0.80;0.80;;;;;;;3.44;83.81;98447.25;4425518;32;32564;-67
2023/01/20 10:07:57;;;;;;;1.05;1.05;;;;;;;3.64;83.11;98443.91;4425299;32;33658;-68
2023/01/20 10:10:55;;;;;;;2.08;1.98;;;;;;;3.52;82.94;98430.13;4423528;32;35140;-78
2023/01/20 10:13:35;;;;;;;0.57;0.57;;;;;;;3.46;83.92;98424.97;4426940;32;34404;-78
2023/01/20 10:16:08;;;;;;;1.15;1.15;;;;;;;3.29;84.57;98417.19;4425126;32;34319;-68
2023/01/20 10:18:46;;;;;;;0.60;0.60;;;;;;;3.30;85.49;98407.75;4424913;32;34726;-78
2023/01/20 10:21:19;;;;;;;1.27;1.27;;;;;;;3.41;85.69;98396.66;4425171;32;36012;-72
2023/01/20 10:23:59;;;;;;;0.52;0.52;;;;;;;3.86;83.23;98399.28;4432789;32;34463;-80
2023/01/20 10:26:39;;;;;;;0.80;0.80;;;;;;;3.40;84.33;98383.78;4424915;32;33574;-80
2023/01/20 10:29:22;;;;;;;2.70;2.50;;;;;;;3.12;86.05;98388.81;4438612;32;33930;-67
2023/01/20 10:31:58;;;;;;;0.68;0.68;;;;;;;3.64;84.11;98389.84;4425083;32;35065;-71
2023/01/20 10:34:45;;;;;;;1.02;1.02;;;;;;;3.53;84.35;98393.25;4422973;32;35304;-67
2023/01/20 10:37:16;;;;;;;10.85;6.03;;;;;;;3.84;81.57;98398.44;4423116;32;33509;-69
2023/01/20 10:40:03;;;;;;;1.02;1.02;;;;;;;3.48;84.19;98400.09;4423155;32;34042;-73
2023/01/20 10:42:32;;;;;;;10.02;3.10;;;;;;;3.60;84.08;98400.13;4423045;32;35041;-68
2023/01/20 10:45:08;;;;;;;0.70;0.70;;;;;;;3.49;84.54;98399.22;4422998;32;34516;-67
2023/01/20 10:48:07;;;;;;;2.15;2.00;;;;;;;3.53;85.19;98407.81;4409179;32;33573;-67
2023/01/20 10:51:11;;;;;;;0.93;0.93;;;;;;;3.84;83.27;98410.47;4423296;32;33764;-68
2023/01/20 10:53:48;;;;;;;0.95;0.95;;;;;;;3.60;83.15;98405.28;4360212;32;35067;-68
2023/01/20 10:56:29;;;;;;;0.80;0.80;;;;;;;3.84;83.00;98405.31;4428981;32;34387;-68
2023/01/20 10:59:10;;;;;;;1.95;1.80;;;;;;;3.65;82.57;98409.56;4438111;32;33555;-70
2023/01/20 11:01:45;;;;;;;1.65;1.55;;;;;;;3.51;84.11;98407.84;4424825;32;33993;-82
2023/01/20 11:04:19;;;;;;;1.45;1.40;;;;;;;3.37;84.00;98417.22;4421584;32;35261;-70
2023/01/20 11:06:56;;;;;;;3.95;2.05;;;;;;;3.41;83.98;98416.37;4438145;32;35099;-69
2023/01/20 11:09:36;;;;;;;0.80;0.80;;;;;;;3.21;85.70;98414.59;4424645;32;34435;-74
2023/01/20 11:12:16;;;;;;;0.50;0.50;;;;;;;3.77;83.49;98409.59;4440128;32;33830;-68
2023/01/20 11:14:53;;;;;;;0.80;0.80;;;;;;;3.61;83.63;98419.00;4439700;32;35890;-67
2023/01/20 11:17:21;;;;;;;9.18;7.10;;;;;;;3.03;85.33;98410.22;4426411;32;33788;-68
2023/01/20 11:19:50;;;;;;;1.12;1.12;;;;;;;2.89;86.81;98411.03;4439904;32;33462;-68
2023/01/20 11:22:30;;;;;;;1.87;1.77;;;;;;;3.19;86.36;98402.56;4439977;32;33894;-68
2023/01/20 11:25:02;;;;;;;8.20;4.37;;;;;;;3.03;86.51;98394.78;4439732;32;35103;-67
2023/01/20 11:27:40;;;;;;;1.67;1.27;;;;;;;3.09;86.18;98387.94;4426541;32;34413;-67
2023/01/20 11:30:28;;;;;;;0.70;0.70;;;;;;;3.03;86.22;98384.50;4425938;32;33447;-69
2023/01/20 11:33:20;;;;;;;0.75;0.75;;;;;;;3.00;87.64;98379.38;4425561;32;223101;-68
2023/01/20 11:36:03;;;;;;;1.90;1.35;;;;;;;2.80;88.60;98376.69;4424535;32;34965;-69
2023/01/20 11:38:47;;;;;;;0.68;0.68;;;;;;;3.43;85.90;98360.63;4425465;32;34617;-68
2023/01/20 11:41:20;;;;;;;1.02;1.02;;;;;;;3.42;85.93;98358.91;4439941;32;33634;-69
2023/01/20 11:43:49;;;;;;;0.62;0.62;;;;;;;3.26;87.27;98349.44;4439656;32;33915;-67
2023/01/20 11:46:22;;;;;;;0.60;0.60;;;;;;;3.39;85.28;98346.91;4439787;32;34175;-68
2023/01/20 11:49:24;;;;;;;1.60;1.50;;;;;;;3.37;86.10;98345.16;4439848;32;34327;-69
2023/01/20 11:51:54;;;;;;;0.95;0.80;;;;;;;3.78;84.67;98345.22;4439868;32;33392;-67
2023/01/20 11:54:27;;;;;;;0.70;0.70;;;;;;;3.13;87.52;98343.41;4439932;32;33983;-68
2023/01/20 11:57:09;;;;;;;0.60;0.60;;;;;;;3.61;85.09;98344.34;4426260;32;35130;-68
2023/01/20 11:59:48;;;;;;;1.50;1.40;;;;;;;3.66;82.58;98336.62;4439589;32;35295;-76
2023/01/20 12:02:22;;;;;;;2.62;1.25;;;;;;;3.60;81.59;98338.34;4439946;32;33586;-76
2023/01/20 12:05:05;;;;;;;1.45;1.35;;;;;;;3.83;80.82;98342.66;4439533;32;33858;-81
2023/01/20 12:07:43;;;;;;;0.70;0.70;;;;;;;3.25;83.72;98337.41;4426264;32;35895;-80
2023/01/20 12:10:23;;;;;;;1.45;1.33;;;;;;;3.44;82.70;98339.16;4426321;32;35098;-67
2023/01/20 12:12:58;;;;;;;0.60;0.60;;;;;;;3.54;82.29;98346.06;4439841;32;33436;-68
2023/01/20 12:15:33;;;;;;;1.45;1.35;;;;;;;3.16;83.82;98344.28;4439159;32;33948;-66
2023/01/20 12:18:07;;;;;;;1.75;1.45;;;;;;;3.24;84.79;98349.44;4439483;32;35002;-68
2023/01/20 12:20:42;;;;;;;0.68;0.68;;;;;;;3.50;82.62;98348.63;4425355;32;35095;-82